createdAt,value
2023-01-17T00:00:12.980Z,95956.33
2023-01-17T00:03:04.895Z,95954.05
2023-01-17T00:05:52.108Z,95959.66
2023-01-17T00:08:55.716Z,95955.98
2023-01-17T00:11:26.674Z,95948.47
2023-01-17T00:13:58.539Z,95945.20
2023-01-17T00:16:27.126Z,95935.45
2023-01-17T00:19:16.780Z,95927.54
2023-01-17T00:22:07.597Z,95920.26
2023-01-17T00:25:00.807Z,95923.20
2023-01-17T00:27:30.367Z,95925.72
2023-01-17T00:30:03.679Z,95928.02
2023-01-17T00:32:32.150Z,95929.59
2023-01-17T00:35:03.205Z,95929.21
2023-01-17T00:37:31.619Z,95932.73
2023-01-17T00:40:02.599Z,95930.06
2023-01-17T00:42:35.957Z,95925.50
2023-01-17T00:45:34.325Z,95908.39
2023-01-17T00:48:24.461Z,95902.98
2023-01-17T00:51:12.665Z,95899.73
2023-01-17T00:54:02.270Z,95886.42
2023-01-17T00:56:49.417Z,95888.09
2023-01-17T00:59:36.477Z,95893.41
2023-01-17T01:02:29.179Z,95884.38
2023-01-17T01:05:18.924Z,95877.23
2023-01-17T01:08:08.604Z,95877.10
2023-01-17T01:11:00.759Z,95881.70
2023-01-17T01:13:54.144Z,95878.31
2023-01-17T01:16:41.153Z,95877.52
2023-01-17T01:19:28.189Z,95877.32
2023-01-17T01:22:20.837Z,95876.80
2023-01-17T01:25:08.005Z,95877.79
2023-01-17T01:27:55.208Z,95874.02
2023-01-17T01:30:42.751Z,95874.73
2023-01-17T01:33:21.021Z,95873.85
2023-01-17T01:35:55.207Z,95876.49
2023-01-17T01:38:25.618Z,95871.74
2023-01-17T01:40:58.817Z,95869.02
2023-01-17T01:43:39.835Z,95873.41
2023-01-17T01:46:11.807Z,95872.85
2023-01-17T01:49:13.406Z,95871.52
2023-01-17T01:51:46.588Z,95871.27
2023-01-17T01:54:25.962Z,95871.48
2023-01-17T01:56:57.878Z,95870.13
2023-01-17T01:59:26.979Z,95875.24
2023-01-17T02:02:01.360Z,95878.13
2023-01-17T02:04:35.508Z,95883.89
2023-01-17T02:07:15.485Z,95881.02
2023-01-17T02:09:45.051Z,95890.36
2023-01-17T02:12:13.973Z,95897.38
2023-01-17T02:14:44.962Z,95893.98
2023-01-17T02:17:31.706Z,95882.80
2023-01-17T02:20:28.534Z,95881.39
2023-01-17T02:23:15.489Z,95873.92
2023-01-17T02:25:53.083Z,95867.20
2023-01-17T02:28:49.671Z,95864.04
2023-01-17T02:31:46.148Z,95868.04
2023-01-17T02:34:28.844Z,95861.71
2023-01-17T02:37:24.245Z,95855.32
2023-01-17T02:40:06.531Z,95855.67
2023-01-17T02:42:42.419Z,95860.86
2023-01-17T02:45:18.422Z,95864.03
2023-01-17T02:47:47.079Z,95869.39
2023-01-17T02:50:19.658Z,95864.53
2023-01-17T02:52:57.085Z,95859.80
2023-01-17T02:55:58.744Z,95854.72
2023-01-17T02:58:56.112Z,95855.69
2023-01-17T03:01:59.847Z,95848.96
2023-01-17T03:05:12.428Z,95846.17
2023-01-17T03:07:44.482Z,95844.08
2023-01-17T03:10:17.302Z,95841.19
2023-01-17T03:12:46.878Z,95841.17
2023-01-17T03:15:17.798Z,95837.82
2023-01-17T03:17:49.854Z,95835.98
2023-01-17T03:20:18.492Z,95832.77
2023-01-17T03:22:47.205Z,95830.23
2023-01-17T03:25:16.915Z,95830.61
2023-01-17T03:27:45.536Z,95828.06
2023-01-17T03:30:14.540Z,95829.27
2023-01-17T03:32:46.996Z,95825.04
2023-01-17T03:35:21.256Z,95821.73
2023-01-17T03:37:52.750Z,95820.05
2023-01-17T03:40:23.904Z,95819.83
2023-01-17T03:42:52.625Z,95819.27
2023-01-17T03:45:21.288Z,95815.40
2023-01-17T03:47:49.945Z,95814.93
2023-01-17T03:50:18.563Z,95812.50
2023-01-17T03:52:53.891Z,95804.11
2023-01-17T03:55:22.459Z,95797.71
2023-01-17T03:57:51.008Z,95800.54
2023-01-17T04:00:21.045Z,95802.27
2023-01-17T04:02:50.669Z,95805.93
2023-01-17T04:05:20.078Z,95797.58
2023-01-17T04:07:48.622Z,95795.89
2023-01-17T04:10:18.480Z,95793.15
2023-01-17T04:12:47.304Z,95791.71
2023-01-17T04:15:20.582Z,95794.83
2023-01-17T04:17:49.264Z,95795.51
2023-01-17T04:20:29.779Z,95795.24
2023-01-17T04:23:04.534Z,95798.63
2023-01-17T04:25:40.883Z,95793.03
2023-01-17T04:28:18.416Z,95793.52
2023-01-17T04:30:58.214Z,95798.82
2023-01-17T04:33:26.864Z,95790.72
2023-01-17T04:35:55.937Z,95787.09
2023-01-17T04:38:27.634Z,95792.84
2023-01-17T04:41:01.580Z,95788.45
2023-01-17T04:43:32.496Z,95785.34
2023-01-17T04:46:10.919Z,95787.66
2023-01-17T04:48:39.613Z,95793.38
2023-01-17T04:51:08.275Z,95799.40
2023-01-17T04:53:42.141Z,95803.91
2023-01-17T04:56:13.354Z,95801.30
2023-01-17T04:58:42.120Z,95801.06
2023-01-17T05:01:13.750Z,95799.70
2023-01-17T05:03:44.604Z,95796.31
2023-01-17T05:06:13.141Z,95798.48
2023-01-17T05:08:52.515Z,95794.98
2023-01-17T05:11:21.135Z,95788.85
2023-01-17T05:13:52.474Z,95792.02
2023-01-17T05:16:21.269Z,95790.09
2023-01-17T05:18:58.622Z,95785.54
2023-01-17T05:21:27.114Z,95780.02
2023-01-17T05:23:58.799Z,95776.42
2023-01-17T05:26:27.319Z,95773.85
2023-01-17T05:28:55.806Z,95783.47
2023-01-17T05:31:24.439Z,95789.23
2023-01-17T05:33:52.922Z,95790.34
2023-01-17T05:36:21.495Z,95783.90
2023-01-17T05:38:50.151Z,95787.55
2023-01-17T05:41:18.742Z,95793.94
2023-01-17T05:43:47.267Z,95785.61
2023-01-17T05:46:16.491Z,95779.92
2023-01-17T05:48:45.047Z,95778.75
2023-01-17T05:51:13.536Z,95777.10
2023-01-17T05:53:42.014Z,95769.90
2023-01-17T05:56:10.743Z,95768.58
2023-01-17T05:58:40.334Z,95779.73
2023-01-17T06:01:08.954Z,95787.05
2023-01-17T06:03:37.938Z,95788.25
2023-01-17T06:06:11.603Z,95798.61
2023-01-17T06:08:40.640Z,95807.25
2023-01-17T06:11:09.332Z,95800.23
2023-01-17T06:13:37.929Z,95796.14
2023-01-17T06:16:06.968Z,95805.36
2023-01-17T06:18:35.715Z,95806.64
2023-01-17T06:21:05.451Z,95805.88
2023-01-17T06:23:35.057Z,95799.52
2023-01-17T06:26:05.045Z,95801.35
2023-01-17T06:28:34.254Z,95790.55
2023-01-17T06:31:08.124Z,95793.39
2023-01-17T06:33:37.868Z,95806.05
2023-01-17T06:36:06.576Z,95809.52
2023-01-17T06:38:38.287Z,95804.91
2023-01-17T06:41:07.056Z,95810.33
2023-01-17T06:43:35.863Z,95815.95
2023-01-17T06:46:05.303Z,95819.29
2023-01-17T06:48:34.100Z,95825.86
2023-01-17T06:51:02.637Z,95830.81
2023-01-17T06:53:31.435Z,95838.64
2023-01-17T06:56:00.595Z,95852.19
2023-01-17T06:58:29.199Z,95860.05
2023-01-17T07:00:57.892Z,95870.84
2023-01-17T07:03:27.481Z,95872.10
2023-01-17T07:06:01.420Z,95871.45
2023-01-17T07:08:35.376Z,95868.55
2023-01-17T07:11:06.810Z,95873.56
2023-01-17T07:13:43.846Z,95879.11
2023-01-17T07:16:13.556Z,95875.30
2023-01-17T07:22:13.232Z,95875.40
2023-01-17T07:24:48.940Z,95881.71
2023-01-17T07:27:17.574Z,95883.92
2023-01-17T07:29:54.206Z,95873.27
2023-01-17T07:32:32.036Z,95858.08
2023-01-17T07:35:06.332Z,95849.59
2023-01-17T07:37:56.512Z,95850.46
2023-01-17T07:40:29.138Z,95865.95
2023-01-17T07:43:16.926Z,95875.98
2023-01-17T07:45:53.506Z,95877.59
2023-01-17T07:48:25.542Z,95873.21
2023-01-17T07:50:58.744Z,95866.48
2023-01-17T07:53:30.021Z,95868.11
2023-01-17T07:59:24.182Z,95855.41
2023-01-17T08:01:55.867Z,95856.06
2023-01-17T08:04:35.378Z,95847.38
2023-01-17T08:07:07.062Z,95853.77
2023-01-17T08:09:39.295Z,95867.32
2023-01-17T08:12:19.405Z,95872.00
2023-01-17T08:14:48.006Z,95879.11
2023-01-17T08:17:20.618Z,95886.27
2023-01-17T08:19:53.328Z,95884.89
2023-01-17T08:22:22.620Z,95883.64
2023-01-17T08:25:01.584Z,95878.63
2023-01-17T08:27:37.302Z,95874.04
2023-01-17T08:30:31.930Z,95865.61
2023-01-17T08:33:04.639Z,95862.17
2023-01-17T08:35:35.570Z,95861.48
2023-01-17T08:38:07.363Z,95856.46
2023-01-17T08:40:36.036Z,95856.21
2023-01-17T08:43:17.736Z,95861.83
2023-01-17T08:45:50.525Z,95870.36
2023-01-17T08:48:24.184Z,95882.23
2023-01-17T08:51:04.159Z,95885.50
2023-01-17T08:53:34.382Z,95873.84
2023-01-17T08:56:05.475Z,95877.56
2023-01-17T08:58:36.279Z,95884.16
2023-01-17T09:01:10.449Z,95881.54
2023-01-17T09:03:40.903Z,95878.45
2023-01-17T09:06:12.840Z,95876.98
2023-01-17T09:08:42.316Z,95872.83
2023-01-17T09:11:13.005Z,95862.89
2023-01-17T09:13:42.381Z,95854.80
2023-01-17T09:16:15.324Z,95861.46
2023-01-17T09:18:43.951Z,95865.70
2023-01-17T09:21:22.755Z,95877.19
2023-01-17T09:23:58.167Z,95891.09
2023-01-17T09:26:30.538Z,95897.80
2023-01-17T09:29:02.364Z,95899.33
2023-01-17T09:31:34.279Z,95903.52
2023-01-17T09:34:06.735Z,95906.01
2023-01-17T09:36:35.587Z,95909.52
2023-01-17T09:39:16.030Z,95909.42
2023-01-17T09:41:50.736Z,95913.95
2023-01-17T09:44:22.279Z,95919.34
2023-01-17T09:47:03.454Z,95924.14
2023-01-17T09:49:43.964Z,95936.02
2023-01-17T09:52:21.212Z,95937.95
2023-01-17T09:54:51.684Z,95941.82
2023-01-17T09:57:23.043Z,95944.56
2023-01-17T10:00:06.170Z,95932.38
2023-01-17T10:02:54.030Z,95908.59
2023-01-17T10:05:28.653Z,95910.20
2023-01-17T10:08:34.084Z,95909.29
2023-01-17T10:11:23.532Z,95924.17
2023-01-17T10:14:20.498Z,95924.09
2023-01-17T10:17:07.971Z,95913.56
2023-01-17T10:20:04.348Z,95908.02
2023-01-17T10:22:52.453Z,95903.45
2023-01-17T10:25:43.275Z,95898.30
2023-01-17T10:28:22.889Z,95903.48
2023-01-17T10:31:06.338Z,95908.90
2023-01-17T10:33:45.110Z,95909.89
2023-01-17T10:36:26.448Z,95910.84
2023-01-17T10:39:00.915Z,95903.71
2023-01-17T10:41:33.963Z,95902.15
2023-01-17T10:44:27.498Z,95905.28
2023-01-17T10:47:06.136Z,95903.02
2023-01-17T10:49:43.088Z,95894.53
2023-01-17T10:52:37.498Z,95882.90
2023-01-17T10:55:25.831Z,95874.40
2023-01-17T10:57:55.461Z,95877.31
2023-01-17T11:00:46.776Z,95875.30
2023-01-17T11:03:17.663Z,95876.46
2023-01-17T11:05:46.402Z,95875.16
2023-01-17T11:08:15.228Z,95874.16
2023-01-17T11:10:49.074Z,95865.32
2023-01-17T11:13:34.417Z,95860.70
2023-01-17T11:16:17.022Z,95869.49
2023-01-17T11:18:45.988Z,95878.79
2023-01-17T11:21:25.863Z,95875.84
2023-01-17T11:23:59.045Z,95869.37
2023-01-17T11:26:33.377Z,95865.98
2023-01-17T11:29:37.498Z,95866.94
2023-01-17T11:32:21.639Z,95874.86
2023-01-17T11:38:27.741Z,95883.05
2023-01-17T11:41:16.238Z,95886.67
2023-01-17T11:43:59.201Z,95887.50
2023-01-17T11:46:31.119Z,95890.34
2023-01-17T11:49:02.320Z,95888.11
2023-01-17T11:51:44.365Z,95890.70
2023-01-17T11:54:26.028Z,95892.75
2023-01-17T11:57:02.106Z,95902.29
2023-01-17T11:59:37.784Z,95904.53
2023-01-17T12:02:32.092Z,95910.00
2023-01-17T12:05:06.004Z,95911.25
2023-01-17T12:08:05.804Z,95901.89
2023-01-17T12:10:56.443Z,95891.71
2023-01-17T12:14:00.013Z,95888.96
2023-01-17T12:16:50.559Z,95888.70
2023-01-17T12:19:32.860Z,95889.73
2023-01-17T12:22:35.295Z,95893.56
2023-01-17T12:25:23.837Z,95903.34
2023-01-17T12:28:27.250Z,95896.65
2023-01-17T12:31:11.306Z,95892.23
2023-01-17T12:33:59.080Z,95888.13
2023-01-17T12:36:50.126Z,95880.75
2023-01-17T12:39:22.740Z,95876.13
2023-01-17T12:41:59.987Z,95876.33
2023-01-17T12:44:51.981Z,95872.66
2023-01-17T12:47:24.343Z,95872.67
2023-01-17T12:49:52.955Z,95876.98
2023-01-17T12:52:37.446Z,95881.33
2023-01-17T12:55:12.360Z,95882.35
2023-01-17T12:57:48.132Z,95883.76
2023-01-17T13:00:23.302Z,95882.78
2023-01-17T13:03:20.587Z,95879.49
2023-01-17T13:05:53.507Z,95881.00
2023-01-17T13:08:49.876Z,95879.98
2023-01-17T13:11:28.808Z,95883.14
2023-01-17T13:14:00.119Z,95895.64
2023-01-17T13:16:59.031Z,95908.90
2023-01-17T13:19:36.984Z,95921.17
2023-01-17T13:22:10.046Z,95929.91
2023-01-17T13:24:52.347Z,95938.77
2023-01-17T13:27:39.950Z,95939.86
2023-01-17T13:30:43.727Z,95939.55
2023-01-17T13:33:39.376Z,95934.27
2023-01-17T13:36:33.025Z,95933.56
2023-01-17T13:39:40.743Z,95930.02
2023-01-17T13:42:24.110Z,95927.85
2023-01-17T13:44:52.891Z,95926.54
2023-01-17T13:47:23.676Z,95923.34
2023-01-17T13:49:56.650Z,95910.14
2023-01-17T13:52:25.300Z,95902.06
2023-01-17T13:54:56.452Z,95898.33
2023-01-17T13:57:43.744Z,95901.05
2023-01-17T14:00:34.224Z,95906.31
2023-01-17T14:03:03.066Z,95906.32
2023-01-17T14:05:31.470Z,95906.81
2023-01-17T14:08:15.144Z,95907.73
2023-01-17T14:10:53.987Z,95913.41
2023-01-17T14:13:36.065Z,95915.56
2023-01-17T14:16:29.330Z,95917.27
2023-01-17T14:18:57.728Z,95928.36
2023-01-17T14:21:32.220Z,95937.55
2023-01-17T14:24:13.220Z,95938.71
2023-01-17T14:26:51.725Z,95940.49
2023-01-17T14:29:46.821Z,95945.09
2023-01-17T14:32:19.204Z,95952.13
2023-01-17T14:34:50.587Z,95952.67
2023-01-17T14:37:22.939Z,95955.95
2023-01-17T14:39:52.305Z,95958.06
2023-01-17T14:42:24.465Z,95961.80
2023-01-17T14:45:02.504Z,95959.20
2023-01-17T14:47:35.395Z,95960.70
2023-01-17T14:50:26.237Z,95959.14
2023-01-17T14:53:13.570Z,95961.45
2023-01-17T14:55:48.376Z,95960.50
2023-01-17T14:58:23.952Z,95967.73
2023-01-17T15:01:02.657Z,95968.27
2023-01-17T15:03:35.859Z,95971.04
2023-01-17T15:06:20.120Z,95968.60
2023-01-17T15:08:50.270Z,95972.23
2023-01-17T15:11:25.389Z,95970.41
2023-01-17T15:13:57.668Z,95964.37
2023-01-17T15:16:27.505Z,95958.23
2023-01-17T15:18:57.763Z,95959.98
2023-01-17T15:21:42.530Z,95958.30
2023-01-17T15:24:21.691Z,95961.51
2023-01-17T15:26:50.413Z,95972.34
2023-01-17T15:29:27.054Z,95973.72
2023-01-17T15:32:00.788Z,95967.61
2023-01-17T15:34:40.976Z,95976.65
2023-01-17T15:37:30.975Z,95982.85
2023-01-17T15:40:26.839Z,95987.90
2023-01-17T15:43:01.181Z,95989.23
2023-01-17T15:45:33.857Z,95976.55
2023-01-17T15:48:36.696Z,95966.88
2023-01-17T15:51:06.348Z,95966.80
2023-01-17T15:53:38.923Z,95955.61
2023-01-17T15:56:32.009Z,95946.04
2023-01-17T15:59:20.928Z,95948.58
2023-01-17T16:01:56.412Z,95967.80
2023-01-17T16:04:33.737Z,95983.59
2023-01-17T16:07:35.567Z,95993.41
2023-01-17T16:10:15.674Z,95987.85
2023-01-17T16:12:53.402Z,95980.82
2023-01-17T16:15:26.010Z,95980.66
2023-01-17T16:18:16.872Z,95982.11
2023-01-17T16:20:55.305Z,95972.45
2023-01-17T16:23:29.147Z,95963.04
2023-01-17T16:26:00.817Z,95969.19
2023-01-17T16:28:30.227Z,95972.63
2023-01-17T16:30:58.732Z,95983.75
2023-01-17T16:33:27.294Z,95986.37
2023-01-17T16:35:56.136Z,95981.95
2023-01-17T16:38:24.651Z,95973.09
2023-01-17T16:40:54.274Z,95971.04
2023-01-17T16:43:23.749Z,95962.47
2023-01-17T16:45:54.310Z,95964.30
2023-01-17T16:48:22.923Z,95956.95
2023-01-17T16:50:54.027Z,95954.08
2023-01-17T16:53:25.582Z,95950.27
2023-01-17T16:55:57.744Z,95935.84
2023-01-17T16:58:26.325Z,95935.70
2023-01-17T17:00:56.752Z,95941.25
2023-01-17T17:03:25.588Z,95941.77
2023-01-17T17:05:59.887Z,95933.41
2023-01-17T17:08:29.698Z,95929.09
2023-01-17T17:11:14.863Z,95923.27
2023-01-17T17:13:46.929Z,95920.88
2023-01-17T17:16:22.012Z,95914.13
2023-01-17T17:19:06.091Z,95896.79
2023-01-17T17:21:35.539Z,95888.46
2023-01-17T17:24:04.549Z,95891.41
2023-01-17T17:26:36.472Z,95901.23
2023-01-17T17:29:06.819Z,95901.39
2023-01-17T17:31:35.450Z,95894.68
2023-01-17T17:34:09.291Z,95890.27
2023-01-17T17:36:39.038Z,95895.34
2023-01-17T17:39:11.707Z,95898.89
2023-01-17T17:41:43.152Z,95892.48
2023-01-17T17:44:18.559Z,95893.41
2023-01-17T17:46:50.100Z,95892.84
2023-01-17T17:49:18.613Z,95883.94
2023-01-17T17:51:48.264Z,95880.23
2023-01-17T17:54:20.125Z,95871.17
2023-01-17T17:56:49.637Z,95860.10
2023-01-17T17:59:19.681Z,95859.94
2023-01-17T18:01:48.899Z,95853.68
2023-01-17T18:04:19.244Z,95857.11
2023-01-17T18:06:48.019Z,95866.41
2023-01-17T18:09:17.883Z,95868.84
2023-01-17T18:11:46.258Z,95869.88
2023-01-17T18:14:15.886Z,95866.57
2023-01-17T18:16:45.027Z,95860.84
2023-01-17T18:19:40.331Z,95853.73
2023-01-17T18:22:08.897Z,95843.39
2023-01-17T18:24:37.664Z,95843.42
2023-01-17T18:27:06.601Z,95843.19
2023-01-17T18:29:35.637Z,95840.34
2023-01-17T18:32:04.251Z,95834.29
2023-01-17T18:34:34.907Z,95831.21
2023-01-17T18:37:03.383Z,95822.25
2023-01-17T18:39:32.398Z,95817.48
2023-01-17T18:42:01.363Z,95804.47
2023-01-17T18:44:30.538Z,95793.98
2023-01-17T18:47:04.592Z,95786.31
2023-01-17T18:49:34.345Z,95780.66
2023-01-17T18:52:03.711Z,95773.56
2023-01-17T18:54:32.971Z,95769.71
2023-01-17T18:57:07.790Z,95768.81
2023-01-17T18:59:36.984Z,95763.68
2023-01-17T19:02:07.159Z,95757.52
2023-01-17T19:04:38.050Z,95755.38
2023-01-17T19:07:12.526Z,95753.08
2023-01-17T19:09:41.894Z,95750.57
2023-01-17T19:12:11.036Z,95745.37
2023-01-17T19:14:40.133Z,95738.55
2023-01-17T19:17:09.310Z,95744.23
2023-01-17T19:19:41.436Z,95747.36
2023-01-17T19:22:10.694Z,95738.15
2023-01-17T19:24:40.701Z,95726.70
2023-01-17T19:27:21.249Z,95719.63
2023-01-17T19:29:50.527Z,95721.22
2023-01-17T19:32:19.681Z,95715.72
2023-01-17T19:34:51.530Z,95718.52
2023-01-17T19:37:20.745Z,95721.86
2023-01-17T19:39:51.785Z,95721.30
2023-01-17T19:42:23.497Z,95723.76
2023-01-17T19:44:52.716Z,95719.67
2023-01-17T19:47:22.004Z,95719.80
2023-01-17T19:49:51.152Z,95721.45
2023-01-17T19:52:22.359Z,95711.86
2023-01-17T19:54:52.167Z,95707.51
2023-01-17T19:57:24.483Z,95710.66
2023-01-17T19:59:54.699Z,95702.86
2023-01-17T20:02:23.941Z,95700.84
2023-01-17T20:04:53.261Z,95698.67
2023-01-17T20:07:23.150Z,95692.43
2023-01-17T20:09:52.229Z,95696.02
2023-01-17T20:12:21.283Z,95699.41
2023-01-17T20:14:52.259Z,95699.23
2023-01-17T20:17:21.736Z,95697.35
2023-01-17T20:19:50.944Z,95691.70
2023-01-17T20:22:21.790Z,95683.55
2023-01-17T20:24:51.165Z,95692.98
2023-01-17T20:27:26.730Z,95689.91
2023-01-17T20:29:56.687Z,95686.37
2023-01-17T20:32:25.718Z,95681.48
2023-01-17T20:34:55.043Z,95681.44
2023-01-17T20:37:24.073Z,95680.51
2023-01-17T20:39:54.317Z,95681.84
2023-01-17T20:42:23.667Z,95676.04
2023-01-17T20:44:52.831Z,95674.83
2023-01-17T20:47:22.304Z,95665.19
2023-01-17T20:49:51.370Z,95657.77
2023-01-17T20:52:20.547Z,95650.73
2023-01-17T20:54:50.423Z,95651.24
2023-01-17T20:57:20.296Z,95642.17
2023-01-17T20:59:49.469Z,95646.27
2023-01-17T21:02:21.343Z,95639.80
2023-01-17T21:04:50.517Z,95635.23
2023-01-17T21:07:20.493Z,95617.90
2023-01-17T21:09:49.859Z,95607.42
2023-01-17T21:12:19.180Z,95619.80
2023-01-17T21:14:48.480Z,95626.50
2023-01-17T21:17:18.827Z,95625.70
2023-01-17T21:19:47.730Z,95611.90
2023-01-17T21:22:17.180Z,95606.29
2023-01-17T21:24:45.940Z,95605.29
2023-01-17T21:27:17.156Z,95604.64
2023-01-17T21:29:45.842Z,95606.05
2023-01-17T21:32:14.793Z,95607.58
2023-01-17T21:34:43.421Z,95601.14
2023-01-17T21:37:12.774Z,95597.74
2023-01-17T21:39:42.273Z,95593.23
2023-01-17T21:42:13.591Z,95580.00
2023-01-17T21:44:49.578Z,95580.61
2023-01-17T21:47:18.338Z,95581.46
2023-01-17T21:49:46.996Z,95583.55
2023-01-17T21:52:18.470Z,95587.63
2023-01-17T21:55:05.582Z,95584.55
2023-01-17T21:57:52.570Z,95582.02
2023-01-17T22:00:26.220Z,95581.81
2023-01-17T22:02:54.953Z,95585.73
2023-01-17T22:05:24.337Z,95579.66
2023-01-17T22:08:11.562Z,95571.93
2023-01-17T22:10:47.178Z,95572.80
2023-01-17T22:13:19.968Z,95556.20
2023-01-17T22:15:58.616Z,95547.19
2023-01-17T22:18:28.059Z,95553.32
2023-01-17T22:20:57.843Z,95556.83
2023-01-17T22:23:27.024Z,95553.61
2023-01-17T22:26:02.781Z,95555.34
2023-01-17T22:28:33.725Z,95562.52
2023-01-17T22:31:17.278Z,95556.55
2023-01-17T22:33:47.781Z,95556.31
2023-01-17T22:36:16.492Z,95563.05
2023-01-17T22:38:45.348Z,95561.83
2023-01-17T22:41:16.644Z,95557.56
2023-01-17T22:43:48.154Z,95555.83
2023-01-17T22:46:19.322Z,95563.00
2023-01-17T22:48:48.257Z,95557.08
2023-01-17T22:51:18.863Z,95550.38
2023-01-17T22:53:53.075Z,95546.74
2023-01-17T22:56:27.643Z,95549.55
2023-01-17T22:58:56.496Z,95550.48
2023-01-17T23:01:28.459Z,95550.53
2023-01-17T23:04:02.194Z,95552.87
2023-01-17T23:06:36.111Z,95553.91
2023-01-17T23:09:10.913Z,95556.33
2023-01-17T23:11:50.048Z,95555.56
2023-01-17T23:14:27.083Z,95556.21
2023-01-17T23:17:16.121Z,95552.06
2023-01-17T23:19:56.826Z,95542.18
2023-01-17T23:22:27.280Z,95541.49
2023-01-17T23:24:55.913Z,95539.32
2023-01-17T23:28:00.020Z,95529.97
2023-01-17T23:30:29.296Z,95523.37
2023-01-17T23:33:00.113Z,95523.32
2023-01-17T23:35:31.882Z,95526.11
2023-01-17T23:38:22.442Z,95528.85
2023-01-17T23:41:10.155Z,95531.12
2023-01-17T23:43:38.769Z,95534.67
2023-01-17T23:46:12.481Z,95536.08
2023-01-17T23:48:41.140Z,95532.48
2023-01-17T23:51:09.788Z,95528.61
2023-01-17T23:53:39.500Z,95527.40
2023-01-17T23:56:16.637Z,95519.27
2023-01-17T23:58:50.985Z,95524.83
